sensor_id;sensor_type;location;lat;lon;timestamp;pressure;altitude;pressure_sealevel;temperature;humidity
81509;BME280;70930;52.412;13.554;2023-08-06T00:02:43;100375.53;;;17.69;74.96
81509;BME280;70930;52.412;13.554;2023-08-06T00:05:29;100372.97;;;17.74;74.57
81509;BME280;70930;52.412;13.554;2023-08-06T00:08:14;100377.38;;;17.57;75.12
81509;BME280;70930;52.412;13.554;2023-08-06T00:10:59;100375.97;;;17.54;75.66
81509;BME280;70930;52.412;13.554;2023-08-06T00:13:45;100372.59;;;17.29;76.35
81509;BME280;70930;52.412;13.554;2023-08-06T00:16:30;100367.38;;;17.34;75.96
81509;BME280;70930;52.412;13.554;2023-08-06T00:19:15;100358.72;;;17.32;76.19
81509;BME280;70930;52.412;13.554;2023-08-06T00:22:01;100350.59;;;17.38;75.85
81509;BME280;70930;52.412;13.554;2023-08-06T00:24:47;100355.03;;;17.45;76.00
81509;BME280;70930;52.412;13.554;2023-08-06T00:27:32;100349.31;;;17.41;76.02
81509;BME280;70930;52.412;13.554;2023-08-06T00:30:17;100351.69;;;17.19;77.40
81509;BME280;70930;52.412;13.554;2023-08-06T00:33:03;100358.16;;;17.30;77.52
81509;BME280;70930;52.412;13.554;2023-08-06T00:35:48;100350.69;;;17.32;78.08
81509;BME280;70930;52.412;13.554;2023-08-06T00:38:33;100354.81;;;17.46;76.76
81509;BME280;70930;52.412;13.554;2023-08-06T00:41:19;100349.22;;;17.48;77.19
81509;BME280;70930;52.412;13.554;2023-08-06T00:44:04;100348.03;;;17.43;76.92
81509;BME280;70930;52.412;13.554;2023-08-06T00:46:50;100343.97;;;17.41;77.54
81509;BME280;70930;52.412;13.554;2023-08-06T00:49:36;100350.63;;;17.50;77.01
81509;BME280;70930;52.412;13.554;2023-08-06T00:52:22;100353.22;;;17.57;76.44
81509;BME280;70930;52.412;13.554;2023-08-06T00:55:08;100349.84;;;17.61;77.11
81509;BME280;70930;52.412;13.554;2023-08-06T00:57:54;100347.34;;;17.48;77.48
81509;BME280;70930;52.412;13.554;2023-08-06T01:00:41;100342.00;;;17.60;76.63
81509;BME280;70930;52.412;13.554;2023-08-06T01:03:27;100342.25;;;17.70;76.92
81509;BME280;70930;52.412;13.554;2023-08-06T01:06:12;100331.72;;;17.45;78.20
81509;BME280;70930;52.412;13.554;2023-08-06T01:09:02;100334.50;;;17.38;78.38
81509;BME280;70930;52.412;13.554;2023-08-06T01:12:05;100334.41;;;17.45;78.27
81509;BME280;70930;52.412;13.554;2023-08-06T01:15:04;100336.50;;;17.13;78.92
81509;BME280;70930;52.412;13.554;2023-08-06T01:17:52;100339.59;;;17.28;78.52
81509;BME280;70930;52.412;13.554;2023-08-06T01:20:37;100332.88;;;17.07;79.32
81509;BME280;70930;52.412;13.554;2023-08-06T01:23:23;100323.69;;;17.15;78.66
81509;BME280;70930;52.412;13.554;2023-08-06T01:29:27;100321.31;;;16.77;80.04
81509;BME280;70930;52.412;13.554;2023-08-06T01:32:14;100316.19;;;16.75;81.20
81509;BME280;70930;52.412;13.554;2023-08-06T01:35:02;100312.91;;;16.73;79.50
81509;BME280;70930;52.412;13.554;2023-08-06T01:37:49;100317.88;;;16.69;79.88
81509;BME280;70930;52.412;13.554;2023-08-06T01:40:35;100312.69;;;16.75;79.52
81509;BME280;70930;52.412;13.554;2023-08-06T01:43:20;100310.16;;;16.80;79.42
81509;BME280;70930;52.412;13.554;2023-08-06T01:46:05;100306.09;;;16.89;79.22
81509;BME280;70930;52.412;13.554;2023-08-06T01:48:51;100295.84;;;16.86;79.76
81509;BME280;70930;52.412;13.554;2023-08-06T01:51:36;100298.22;;;16.94;79.18
81509;BME280;70930;52.412;13.554;2023-08-06T01:54:21;100295.59;;;16.87;79.41
81509;BME280;70930;52.412;13.554;2023-08-06T01:57:08;100291.75;;;16.83;79.15
81509;BME280;70930;52.412;13.554;2023-08-06T01:59:53;100280.88;;;16.78;80.05
81509;BME280;70930;52.412;13.554;2023-08-06T02:02:38;100278.75;;;16.99;78.83
81509;BME280;70930;52.412;13.554;2023-08-06T02:05:25;100282.31;;;16.62;79.94
81509;BME280;70930;52.412;13.554;2023-08-06T02:08:11;100283.28;;;16.50;80.87
81509;BME280;70930;52.412;13.554;2023-08-06T02:10:56;100271.81;;;16.42;81.51
81509;BME280;70930;52.412;13.554;2023-08-06T02:13:43;100274.66;;;16.48;82.11
81509;BME280;70930;52.412;13.554;2023-08-06T02:16:28;100268.47;;;16.29;82.67
81509;BME280;70930;52.412;13.554;2023-08-06T02:19:14;100271.47;;;16.39;82.50
81509;BME280;70930;52.412;13.554;2023-08-06T02:21:59;100265.94;;;16.52;81.91
81509;BME280;70930;52.412;13.554;2023-08-06T02:24:45;100262.69;;;16.62;81.29
81509;BME280;70930;52.412;13.554;2023-08-06T02:27:30;100257.13;;;16.63;81.01
81509;BME280;70930;52.412;13.554;2023-08-06T02:30:16;100248.72;;;16.78;80.00
81509;BME280;70930;52.412;13.554;2023-08-06T02:33:01;100247.06;;;16.77;80.36
81509;BME280;70930;52.412;13.554;2023-08-06T02:35:47;100246.47;;;16.75;80.53
81509;BME280;70930;52.412;13.554;2023-08-06T02:38:32;100249.56;;;16.90;79.87
81509;BME280;70930;52.412;13.554;2023-08-06T02:41:18;100243.34;;;16.78;80.13
81509;BME280;70930;52.412;13.554;2023-08-06T02:44:03;100251.25;;;16.73;80.78
81509;BME280;70930;52.412;13.554;2023-08-06T02:46:49;100247.28;;;16.57;81.23
81509;BME280;70930;52.412;13.554;2023-08-06T02:49:34;100240.88;;;16.77;80.85
81509;BME280;70930;52.412;13.554;2023-08-06T02:52:19;100240.31;;;16.56;81.71
81509;BME280;70930;52.412;13.554;2023-08-06T02:55:06;100243.88;;;16.50;82.19
81509;BME280;70930;52.412;13.554;2023-08-06T02:57:51;100242.88;;;16.51;82.13
81509;BME280;70930;52.412;13.554;2023-08-06T03:00:37;100243.69;;;16.33;82.46
81509;BME280;70930;52.412;13.554;2023-08-06T03:03:22;100243.00;;;16.38;82.77
81509;BME280;70930;52.412;13.554;2023-08-06T03:06:07;100238.41;;;16.27;83.52
81509;BME280;70930;52.412;13.554;2023-08-06T03:08:53;100241.75;;;16.40;82.29
81509;BME280;70930;52.412;13.554;2023-08-06T03:11:38;100236.63;;;16.39;82.52
81509;BME280;70930;52.412;13.554;2023-08-06T03:14:24;100235.44;;;15.98;84.12
81509;BME280;70930;52.412;13.554;2023-08-06T03:17:09;100236.56;;;16.09;83.26
81509;BME280;70930;52.412;13.554;2023-08-06T03:19:54;100215.41;;;16.19;83.44
81509;BME280;70930;52.412;13.554;2023-08-06T03:22:40;100211.91;;;16.37;82.91
81509;BME280;70930;52.412;13.554;2023-08-06T03:25:25;100209.22;;;16.37;82.81
81509;BME280;70930;52.412;13.554;2023-08-06T03:28:11;100199.47;;;16.42;81.82
81509;BME280;70930;52.412;13.554;2023-08-06T03:31:03;100197.66;;;16.06;82.87
81509;BME280;70930;52.412;13.554;2023-08-06T03:33:49;100194.78;;;16.08;83.10
81509;BME280;70930;52.412;13.554;2023-08-06T03:36:34;100191.53;;;16.36;81.77
81509;BME280;70930;52.412;13.554;2023-08-06T03:39:19;100190.72;;;16.17;82.10
81509;BME280;70930;52.412;13.554;2023-08-06T03:42:05;100188.13;;;16.10;82.80
81509;BME280;70930;52.412;13.554;2023-08-06T03:44:50;100180.47;;;16.14;83.16
81509;BME280;70930;52.412;13.554;2023-08-06T03:47:36;100182.41;;;16.07;82.55
81509;BME280;70930;52.412;13.554;2023-08-06T03:50:21;100182.25;;;16.02;83.53
81509;BME280;70930;52.412;13.554;2023-08-06T03:53:06;100182.69;;;16.17;82.59
81509;BME280;70930;52.412;13.554;2023-08-06T03:55:52;100172.16;;;16.34;81.92
81509;BME280;70930;52.412;13.554;2023-08-06T03:58:37;100166.03;;;16.15;82.32
81509;BME280;70930;52.412;13.554;2023-08-06T04:01:22;100162.31;;;16.16;82.79
81509;BME280;70930;52.412;13.554;2023-08-06T04:04:08;100156.34;;;16.14;82.77
81509;BME280;70930;52.412;13.554;2023-08-06T04:06:53;100158.25;;;16.43;81.45
81509;BME280;70930;52.412;13.554;2023-08-06T04:09:59;100152.28;;;16.41;81.32
81509;BME280;70930;52.412;13.554;2023-08-06T04:12:45;100152.16;;;16.36;81.05
81509;BME280;70930;52.412;13.554;2023-08-06T04:15:33;100154.47;;;16.33;81.95
81509;BME280;70930;52.412;13.554;2023-08-06T04:18:19;100146.13;;;16.53;80.50
81509;BME280;70930;52.412;13.554;2023-08-06T04:21:05;100139.13;;;16.40;80.70
81509;BME280;70930;52.412;13.554;2023-08-06T04:23:50;100136.47;;;16.52;79.98
81509;BME280;70930;52.412;13.554;2023-08-06T04:26:36;100130.31;;;16.63;79.28
81509;BME280;70930;52.412;13.554;2023-08-06T04:29:21;100125.41;;;16.60;79.43
81509;BME280;70930;52.412;13.554;2023-08-06T04:32:08;100124.00;;;16.57;79.22
81509;BME280;70930;52.412;13.554;2023-08-06T04:34:55;100115.97;;;16.57;79.70
81509;BME280;70930;52.412;13.554;2023-08-06T04:37:40;100117.00;;;16.44;79.66
81509;BME280;70930;52.412;13.554;2023-08-06T04:40:26;100119.22;;;16.48;79.73
81509;BME280;70930;52.412;13.554;2023-08-06T04:43:12;100115.22;;;16.38;80.29
81509;BME280;70930;52.412;13.554;2023-08-06T04:45:57;100110.97;;;16.61;79.67
81509;BME280;70930;52.412;13.554;2023-08-06T04:48:42;100106.03;;;16.46;80.17
81509;BME280;70930;52.412;13.554;2023-08-06T04:51:28;100104.19;;;16.58;79.75
81509;BME280;70930;52.412;13.554;2023-08-06T04:54:13;100101.16;;;16.43;79.96
81509;BME280;70930;52.412;13.554;2023-08-06T04:56:59;100097.78;;;16.48;80.75
81509;BME280;70930;52.412;13.554;2023-08-06T04:59:44;100102.56;;;16.57;79.82
81509;BME280;70930;52.412;13.554;2023-08-06T05:02:30;100106.78;;;16.65;79.90
81509;BME280;70930;52.412;13.554;2023-08-06T05:05:17;100098.88;;;16.82;79.22
81509;BME280;70930;52.412;13.554;2023-08-06T05:08:02;100100.41;;;16.78;78.72
81509;BME280;70930;52.412;13.554;2023-08-06T05:10:48;100098.88;;;16.82;78.83
81509;BME280;70930;52.412;13.554;2023-08-06T05:13:33;100100.19;;;16.79;78.55
81509;BME280;70930;52.412;13.554;2023-08-06T05:16:18;100094.81;;;16.79;79.06
81509;BME280;70930;52.412;13.554;2023-08-06T05:19:04;100087.72;;;16.85;78.78
81509;BME280;70930;52.412;13.554;2023-08-06T05:21:49;100082.13;;;16.98;78.14
81509;BME280;70930;52.412;13.554;2023-08-06T05:24:35;100080.63;;;16.90;78.23
81509;BME280;70930;52.412;13.554;2023-08-06T05:27:20;100080.25;;;16.87;79.30
81509;BME280;70930;52.412;13.554;2023-08-06T05:30:06;100075.06;;;16.62;80.54
81509;BME280;70930;52.412;13.554;2023-08-06T05:32:51;100078.44;;;16.69;80.47
81509;BME280;70930;52.412;13.554;2023-08-06T05:35:37;100077.06;;;16.66;80.63
81509;BME280;70930;52.412;13.554;2023-08-06T05:38:22;100072.88;;;16.59;80.48
81509;BME280;70930;52.412;13.554;2023-08-06T05:41:08;100072.81;;;16.35;80.79
81509;BME280;70930;52.412;13.554;2023-08-06T05:43:53;100073.88;;;16.58;81.29
81509;BME280;70930;52.412;13.554;2023-08-06T05:46:38;100070.97;;;16.48;81.77
81509;BME280;70930;52.412;13.554;2023-08-06T05:49:24;100075.94;;;16.32;82.46
81509;BME280;70930;52.412;13.554;2023-08-06T05:52:10;100072.50;;;16.43;81.23
81509;BME280;70930;52.412;13.554;2023-08-06T05:54:55;100070.63;;;16.44;81.58
81509;BME280;70930;52.412;13.554;2023-08-06T05:57:41;100067.28;;;16.18;83.13
81509;BME280;70930;52.412;13.554;2023-08-06T06:00:26;100066.84;;;16.33;83.31
81509;BME280;70930;52.412;13.554;2023-08-06T06:03:12;100064.91;;;16.40;82.88
81509;BME280;70930;52.412;13.554;2023-08-06T06:05:58;100054.53;;;16.44;82.46
81509;BME280;70930;52.412;13.554;2023-08-06T06:08:45;100063.66;;;16.66;81.46
81509;BME280;70930;52.412;13.554;2023-08-06T06:11:30;100057.94;;;16.51;81.01
81509;BME280;70930;52.412;13.554;2023-08-06T06:14:19;100060.63;;;16.63;81.56
81509;BME280;70930;52.412;13.554;2023-08-06T06:17:04;100053.78;;;16.79;80.83
81509;BME280;70930;52.412;13.554;2023-08-06T06:19:49;100053.78;;;17.02;79.61
81509;BME280;70930;52.412;13.554;2023-08-06T06:22:35;100047.63;;;17.02;79.99
81509;BME280;70930;52.412;13.554;2023-08-06T06:25:20;100050.75;;;16.99;81.08
81509;BME280;70930;52.412;13.554;2023-08-06T06:28:05;100043.97;;;17.08;80.41
81509;BME280;70930;52.412;13.554;2023-08-06T06:30:51;100042.81;;;17.15;80.33
81509;BME280;70930;52.412;13.554;2023-08-06T06:33:36;100041.91;;;16.98;80.68
81509;BME280;70930;52.412;13.554;2023-08-06T06:36:22;100033.50;;;17.06;80.80
81509;BME280;70930;52.412;13.554;2023-08-06T06:39:08;100036.25;;;17.35;79.32
81509;BME280;70930;52.412;13.554;2023-08-06T06:41:54;100034.84;;;17.21;79.87
81509;BME280;70930;52.412;13.554;2023-08-06T06:44:39;100032.78;;;17.23;79.64
81509;BME280;70930;52.412;13.554;2023-08-06T06:47:25;100032.88;;;17.28;80.03
81509;BME280;70930;52.412;13.554;2023-08-06T06:50:10;100036.09;;;17.53;78.32
81509;BME280;70930;52.412;13.554;2023-08-06T06:52:56;100031.63;;;17.59;77.87
81509;BME280;70930;52.412;13.554;2023-08-06T06:55:41;100037.97;;;17.53;79.56
81509;BME280;70930;52.412;13.554;2023-08-06T06:58:27;100037.00;;;17.59;78.69
81509;BME280;70930;52.412;13.554;2023-08-06T07:01:12;100037.81;;;17.59;78.20
81509;BME280;70930;52.412;13.554;2023-08-06T07:03:57;100035.47;;;17.63;79.41
81509;BME280;70930;52.412;13.554;2023-08-06T07:06:43;100035.72;;;17.61;79.16
81509;BME280;70930;52.412;13.554;2023-08-06T07:09:28;100031.53;;;17.54;78.63
81509;BME280;70930;52.412;13.554;2023-08-06T07:12:13;100036.31;;;17.52;79.49
81509;BME280;70930;52.412;13.554;2023-08-06T07:14:59;100039.94;;;17.57;79.34
81509;BME280;70930;52.412;13.554;2023-08-06T07:17:44;100043.50;;;17.75;78.10
81509;BME280;70930;52.412;13.554;2023-08-06T07:20:30;100036.63;;;17.27;79.77
81509;BME280;70930;52.412;13.554;2023-08-06T07:23:22;100035.81;;;17.66;79.35
81509;BME280;70930;52.412;13.554;2023-08-06T07:26:07;100035.78;;;17.78;78.57
81509;BME280;70930;52.412;13.554;2023-08-06T07:28:54;100038.22;;;17.80;77.98
81509;BME280;70930;52.412;13.554;2023-08-06T07:31:40;100028.63;;;17.84;77.87
81509;BME280;70930;52.412;13.554;2023-08-06T07:34:25;100041.19;;;17.95;77.46
81509;BME280;70930;52.412;13.554;2023-08-06T07:37:10;100038.47;;;17.66;77.71
81509;BME280;70930;52.412;13.554;2023-08-06T07:39:56;100029.94;;;17.81;77.42
81509;BME280;70930;52.412;13.554;2023-08-06T07:42:41;100030.03;;;17.86;78.48
81509;BME280;70930;52.412;13.554;2023-08-06T07:45:27;100034.28;;;17.99;77.14
81509;BME280;70930;52.412;13.554;2023-08-06T07:48:12;100030.56;;;18.00;77.24
81509;BME280;70930;52.412;13.554;2023-08-06T07:50:57;100033.59;;;18.04;77.20
81509;BME280;70930;52.412;13.554;2023-08-06T07:53:44;100031.91;;;17.86;77.74
81509;BME280;70930;52.412;13.554;2023-08-06T07:56:30;100030.78;;;17.99;77.13
81509;BME280;70930;52.412;13.554;2023-08-06T07:59:15;100033.44;;;17.82;77.50
81509;BME280;70930;52.412;13.554;2023-08-06T08:02:01;100038.06;;;17.58;77.89
81509;BME280;70930;52.412;13.554;2023-08-06T08:04:46;100028.13;;;17.58;78.43
81509;BME280;70930;52.412;13.554;2023-08-06T08:07:32;100030.19;;;17.68;77.33
81509;BME280;70930;52.412;13.554;2023-08-06T08:10:18;100028.94;;;17.59;77.36
81509;BME280;70930;52.412;13.554;2023-08-06T08:13:03;100027.09;;;17.48;77.94
81509;BME280;70930;52.412;13.554;2023-08-06T08:15:49;100029.53;;;17.61;78.00
81509;BME280;70930;52.412;13.554;2023-08-06T08:18:34;100032.88;;;17.68;77.66
81509;BME280;70930;52.412;13.554;2023-08-06T08:21:20;100025.09;;;17.55;78.38
81509;BME280;70930;52.412;13.554;2023-08-06T08:24:06;100019.81;;;17.60;78.55
81509;BME280;70930;52.412;13.554;2023-08-06T08:26:52;100023.59;;;17.47;79.14
81509;BME280;70930;52.412;13.554;2023-08-06T08:29:38;100021.56;;;17.26;79.65
81509;BME280;70930;52.412;13.554;2023-08-06T08:32:23;100018.00;;;17.49;78.89
81509;BME280;70930;52.412;13.554;2023-08-06T08:35:09;100010.44;;;17.46;79.00
81509;BME280;70930;52.412;13.554;2023-08-06T08:37:54;100006.94;;;17.45;79.70
81509;BME280;70930;52.412;13.554;2023-08-06T08:40:45;99995.53;;;17.38;78.49
81509;BME280;70930;52.412;13.554;2023-08-06T08:43:32;99989.66;;;17.53;78.21
81509;BME280;70930;52.412;13.554;2023-08-06T08:46:19;99983.88;;;17.61;77.80
81509;BME280;70930;52.412;13.554;2023-08-06T08:49:05;99978.47;;;17.73;78.84
81509;BME280;70930;52.412;13.554;2023-08-06T08:51:52;99977.69;;;17.60;79.23
81509;BME280;70930;52.412;13.554;2023-08-06T08:54:38;99969.47;;;17.79;78.70
81509;BME280;70930;52.412;13.554;2023-08-06T08:57:24;99971.59;;;17.94;78.44
81509;BME280;70930;52.412;13.554;2023-08-06T09:00:11;99959.06;;;17.82;78.67
81509;BME280;70930;52.412;13.554;2023-08-06T09:02:58;99960.78;;;18.05;78.31
81509;BME280;70930;52.412;13.554;2023-08-06T09:05:44;99959.16;;;18.21;77.39
81509;BME280;70930;52.412;13.554;2023-08-06T09:08:40;99947.84;;;18.02;77.78
81509;BME280;70930;52.412;13.554;2023-08-06T09:11:27;99952.88;;;17.99;77.62
81509;BME280;70930;52.412;13.554;2023-08-06T09:14:12;99949.56;;;18.08;78.38
81509;BME280;70930;52.412;13.554;2023-08-06T09:16:58;99947.28;;;18.17;76.51
81509;BME280;70930;52.412;13.554;2023-08-06T09:19:43;99950.53;;;18.19;77.49
81509;BME280;70930;52.412;13.554;2023-08-06T09:22:34;99945.06;;;18.31;78.70
81509;BME280;70930;52.412;13.554;2023-08-06T09:25:22;99939.03;;;18.40;77.33
81509;BME280;70930;52.412;13.554;2023-08-06T09:28:08;99933.75;;;18.46;77.10
81509;BME280;70930;52.412;13.554;2023-08-06T09:30:54;99927.00;;;18.43;76.56
81509;BME280;70930;52.412;13.554;2023-08-06T09:33:40;99933.34;;;18.37;77.01
81509;BME280;70930;52.412;13.554;2023-08-06T09:36:27;99934.91;;;18.16;79.56
81509;BME280;70930;52.412;13.554;2023-08-06T09:39:13;99921.69;;;18.48;77.35
81509;BME280;70930;52.412;13.554;2023-08-06T09:42:00;99922.59;;;18.37;76.23
81509;BME280;70930;52.412;13.554;2023-08-06T09:44:46;99919.41;;;18.40;76.50
81509;BME280;70930;52.412;13.554;2023-08-06T09:47:32;99918.72;;;18.28;76.70
81509;BME280;70930;52.412;13.554;2023-08-06T09:50:18;99914.28;;;18.38;77.07
81509;BME280;70930;52.412;13.554;2023-08-06T09:53:05;99911.69;;;18.44;76.93
81509;BME280;70930;52.412;13.554;2023-08-06T09:55:50;99915.91;;;18.39;77.13
81509;BME280;70930;52.412;13.554;2023-08-06T09:58:36;99915.81;;;18.34;76.85
81509;BME280;70930;52.412;13.554;2023-08-06T10:01:22;99914.47;;;18.15;77.27
81509;BME280;70930;52.412;13.554;2023-08-06T10:04:08;99904.38;;;18.05;78.80
81509;BME280;70930;52.412;13.554;2023-08-06T10:06:54;99908.94;;;18.05;80.06
81509;BME280;70930;52.412;13.554;2023-08-06T10:09:39;99906.31;;;18.10;80.71
81509;BME280;70930;52.412;13.554;2023-08-06T10:12:27;99905.97;;;17.73;81.90
81509;BME280;70930;52.412;13.554;2023-08-06T10:15:17;99902.72;;;17.87;80.75
81509;BME280;70930;52.412;13.554;2023-08-06T10:18:06;99900.72;;;17.95;80.41
81509;BME280;70930;52.412;13.554;2023-08-06T10:20:52;99893.44;;;18.29;79.23
81509;BME280;70930;52.412;13.554;2023-08-06T10:23:40;99898.00;;;18.28;79.61
81509;BME280;70930;52.412;13.554;2023-08-06T10:26:27;99890.66;;;18.40;78.73
81509;BME280;70930;52.412;13.554;2023-08-06T10:29:48;99886.84;;;18.36;75.90
81509;BME280;70930;52.412;13.554;2023-08-06T10:32:47;99888.47;;;18.37;76.81
81509;BME280;70930;52.412;13.554;2023-08-06T10:35:41;99884.72;;;18.38;77.09
81509;BME280;70930;52.412;13.554;2023-08-06T10:38:29;99880.88;;;18.34;74.89
81509;BME280;70930;52.412;13.554;2023-08-06T10:41:38;99876.47;;;18.45;74.44
81509;BME280;70930;52.412;13.554;2023-08-06T10:44:22;99878.88;;;18.63;76.53
81509;BME280;70930;52.412;13.554;2023-08-06T10:47:26;99876.94;;;18.59;75.35
81509;BME280;70930;52.412;13.554;2023-08-06T10:50:14;99879.91;;;18.62;74.43
81509;BME280;70930;52.412;13.554;2023-08-06T10:53:05;99876.94;;;18.59;73.22
81509;BME280;70930;52.412;13.554;2023-08-06T10:55:53;99872.47;;;18.48;73.90
81509;BME280;70930;52.412;13.554;2023-08-06T10:58:39;99869.34;;;18.17;75.88
81509;BME280;70930;52.412;13.554;2023-08-06T11:01:24;99869.22;;;18.46;73.95
81509;BME280;70930;52.412;13.554;2023-08-06T11:04:09;99864.44;;;18.31;75.56
81509;BME280;70930;52.412;13.554;2023-08-06T11:07:01;99871.25;;;18.17;74.52
81509;BME280;70930;52.412;13.554;2023-08-06T11:09:50;99863.28;;;18.44;74.67
81509;BME280;70930;52.412;13.554;2023-08-06T11:12:35;99854.59;;;18.36;76.36
81509;BME280;70930;52.412;13.554;2023-08-06T11:15:21;99851.91;;;18.36;74.97
81509;BME280;70930;52.412;13.554;2023-08-06T11:18:07;99841.84;;;18.49;74.51
81509;BME280;70930;52.412;13.554;2023-08-06T11:20:52;99853.53;;;18.37;74.56
81509;BME280;70930;52.412;13.554;2023-08-06T11:23:38;99847.34;;;18.37;74.79
81509;BME280;70930;52.412;13.554;2023-08-06T11:26:24;99842.72;;;18.54;76.90
81509;BME280;70930;52.412;13.554;2023-08-06T11:29:10;99845.03;;;18.68;75.73
81509;BME280;70930;52.412;13.554;2023-08-06T11:32:03;99843.75;;;18.70;73.14
81509;BME280;70930;52.412;13.554;2023-08-06T11:34:49;99833.91;;;18.59;74.95
81509;BME280;70930;52.412;13.554;2023-08-06T11:37:35;99831.69;;;18.73;74.76
81509;BME280;70930;52.412;13.554;2023-08-06T11:40:21;99831.53;;;18.62;76.03
81509;BME280;70930;52.412;13.554;2023-08-06T11:43:07;99824.97;;;18.53;73.58
81509;BME280;70930;52.412;13.554;2023-08-06T11:45:55;99812.69;;;18.62;74.11
81509;BME280;70930;52.412;13.554;2023-08-06T11:48:54;99821.06;;;18.66;74.77
81509;BME280;70930;52.412;13.554;2023-08-06T11:51:40;99814.69;;;18.50;75.28
81509;BME280;70930;52.412;13.554;2023-08-06T11:54:32;99811.69;;;18.47;75.32
81509;BME280;70930;52.412;13.554;2023-08-06T11:57:22;99810.66;;;18.48;73.71
81509;BME280;70930;52.412;13.554;2023-08-06T12:00:09;99807.53;;;18.56;75.80
81509;BME280;70930;52.412;13.554;2023-08-06T12:02:56;99804.72;;;18.68;74.27
81509;BME280;70930;52.412;13.554;2023-08-06T12:05:44;99801.69;;;18.86;75.15
81509;BME280;70930;52.412;13.554;2023-08-06T12:08:32;99802.91;;;18.95;74.36
81509;BME280;70930;52.412;13.554;2023-08-06T12:11:17;99801.25;;;18.94;74.04
81509;BME280;70930;52.412;13.554;2023-08-06T12:14:02;99798.88;;;18.98;74.26
81509;BME280;70930;52.412;13.554;2023-08-06T12:16:48;99797.69;;;18.88;74.52
81509;BME280;70930;52.412;13.554;2023-08-06T12:19:33;99795.47;;;19.07;74.19
81509;BME280;70930;52.412;13.554;2023-08-06T12:22:19;99795.13;;;19.26;73.30
81509;BME280;70930;52.412;13.554;2023-08-06T12:25:06;99800.78;;;19.29;72.19
81509;BME280;70930;52.412;13.554;2023-08-06T12:27:53;99790.47;;;19.21;74.00
81509;BME280;70930;52.412;13.554;2023-08-06T12:30:39;99795.66;;;19.28;72.91
81509;BME280;70930;52.412;13.554;2023-08-06T12:33:27;99797.50;;;19.22;72.87
81509;BME280;70930;52.412;13.554;2023-08-06T12:36:12;99798.66;;;19.04;72.80
81509;BME280;70930;52.412;13.554;2023-08-06T12:38:57;99795.78;;;18.84;74.46
81509;BME280;70930;52.412;13.554;2023-08-06T12:41:43;99794.84;;;18.73;73.98
81509;BME280;70930;52.412;13.554;2023-08-06T12:44:30;99798.66;;;18.77;75.46
81509;BME280;70930;52.412;13.554;2023-08-06T12:47:16;99796.78;;;18.78;73.44
81509;BME280;70930;52.412;13.554;2023-08-06T12:50:01;99784.47;;;18.60;75.29
81509;BME280;70930;52.412;13.554;2023-08-06T12:52:47;99789.88;;;18.65;75.14
81509;BME280;70930;52.412;13.554;2023-08-06T12:55:32;99786.44;;;18.70;75.76
81509;BME280;70930;52.412;13.554;2023-08-06T12:58:17;99786.78;;;18.51;76.62
81509;BME280;70930;52.412;13.554;2023-08-06T13:01:03;99785.34;;;18.44;76.48
81509;BME280;70930;52.412;13.554;2023-08-06T13:03:48;99781.66;;;18.28;76.63
81509;BME280;70930;52.412;13.554;2023-08-06T13:06:34;99786.38;;;18.21;76.50
81509;BME280;70930;52.412;13.554;2023-08-06T13:09:22;99789.81;;;18.16;76.49
81509;BME280;70930;52.412;13.554;2023-08-06T13:12:07;99782.47;;;18.11;75.95
81509;BME280;70930;52.412;13.554;2023-08-06T13:14:53;99795.72;;;17.96;76.29
81509;BME280;70930;52.412;13.554;2023-08-06T13:17:40;99790.66;;;18.00;76.48
81509;BME280;70930;52.412;13.554;2023-08-06T13:20:26;99797.19;;;17.87;77.24
81509;BME280;70930;52.412;13.554;2023-08-06T13:23:12;99793.53;;;17.93;77.42
81509;BME280;70930;52.412;13.554;2023-08-06T13:26:00;99799.44;;;17.95;77.85
81509;BME280;70930;52.412;13.554;2023-08-06T13:28:46;99790.53;;;17.89;78.48
81509;BME280;70930;52.412;13.554;2023-08-06T13:31:31;99791.50;;;18.00;77.76
81509;BME280;70930;52.412;13.554;2023-08-06T13:34:17;99778.94;;;18.06;77.53
81509;BME280;70930;52.412;13.554;2023-08-06T13:37:02;99781.19;;;18.14;77.40
81509;BME280;70930;52.412;13.554;2023-08-06T13:39:48;99778.56;;;18.19;77.70
81509;BME280;70930;52.412;13.554;2023-08-06T13:42:33;99783.22;;;18.24;77.41
81509;BME280;70930;52.412;13.554;2023-08-06T13:45:19;99785.50;;;18.15;77.39
81509;BME280;70930;52.412;13.554;2023-08-06T13:48:04;99779.78;;;17.89;78.04
81509;BME280;70930;52.412;13.554;2023-08-06T13:50:50;99788.75;;;17.78;77.94
81509;BME280;70930;52.412;13.554;2023-08-06T13:53:35;99786.69;;;17.69;78.90
81509;BME280;70930;52.412;13.554;2023-08-06T13:56:20;99781.88;;;17.71;78.83
81509;BME280;70930;52.412;13.554;2023-08-06T13:59:06;99791.16;;;17.80;78.28
81509;BME280;70930;52.412;13.554;2023-08-06T14:01:51;99781.50;;;17.79;78.60
81509;BME280;70930;52.412;13.554;2023-08-06T14:04:38;99783.38;;;17.78;79.41
81509;BME280;70930;52.412;13.554;2023-08-06T14:07:25;99786.19;;;17.72;79.23
81509;BME280;70930;52.412;13.554;2023-08-06T14:10:10;99785.56;;;17.64;79.11
81509;BME280;70930;52.412;13.554;2023-08-06T14:12:56;99775.63;;;17.65;80.30
81509;BME280;70930;52.412;13.554;2023-08-06T14:15:41;99779.78;;;17.89;78.42
81509;BME280;70930;52.412;13.554;2023-08-06T14:18:26;99784.41;;;17.94;78.48
81509;BME280;70930;52.412;13.554;2023-08-06T14:21:12;99783.66;;;17.99;78.28
81509;BME280;70930;52.412;13.554;2023-08-06T14:23:58;99789.34;;;18.02;78.65
81509;BME280;70930;52.412;13.554;2023-08-06T14:26:43;99785.81;;;18.19;77.57